createdAt,value
2022-12-28T00:00:38.734Z,3.20
2022-12-28T00:16:23.442Z,3.10
2022-12-28T00:21:26.014Z,3.10
2022-12-28T00:26:31.027Z,3.10
2022-12-28T00:31:34.329Z,3.10
2022-12-28T00:57:04.907Z,3.30
2022-12-28T01:12:11.328Z,3.20
2022-12-28T01:17:13.028Z,3.30
2022-12-28T01:37:21.590Z,3.40
2022-12-28T01:47:29.572Z,3.40
2022-12-28T01:52:36.972Z,3.40
2022-12-28T01:57:59.015Z,3.40
2022-12-28T02:03:09.252Z,3.20
2022-12-28T02:08:23.270Z,3.30
2022-12-28T02:13:26.134Z,3.40
2022-12-28T02:23:59.982Z,3.40
2022-12-28T02:29:29.122Z,3.30
2022-12-28T02:34:55.824Z,3.00
2022-12-28T02:40:04.963Z,2.40
2022-12-28T02:51:00.789Z,3.40
2022-12-28T02:56:17.496Z,3.50
2022-12-28T03:01:37.974Z,3.60
2022-12-28T03:12:08.623Z,3.70
2022-12-28T03:17:30.256Z,3.50
2022-12-28T03:22:54.680Z,3.50
2022-12-28T03:38:35.572Z,3.90
2022-12-28T03:43:53.925Z,4.00
2022-12-28T03:48:59.240Z,4.20
2022-12-28T03:59:03.789Z,4.00
2022-12-28T04:04:05.611Z,3.90
2022-12-28T04:19:13.141Z,4.40
2022-12-28T04:24:14.859Z,4.40
2022-12-28T04:44:22.896Z,5.00
2022-12-28T04:54:26.674Z,5.00
2022-12-28T05:04:30.558Z,5.10
2022-12-28T05:09:32.358Z,5.10
2022-12-28T05:34:45.661Z,5.60
2022-12-28T05:54:53.707Z,5.60
2022-12-28T05:59:55.411Z,6.20
2022-12-28T06:04:57.151Z,6.40
2022-12-28T06:09:58.946Z,6.30
2022-12-28T06:15:00.717Z,6.50
2022-12-28T06:25:04.777Z,6.40
2022-12-28T06:30:07.258Z,6.50
2022-12-28T06:35:09.262Z,6.70
2022-12-28T06:40:11.455Z,6.70
2022-12-28T06:45:13.113Z,6.70
2022-12-28T06:55:17.127Z,6.70
2022-12-28T07:00:19.061Z,6.70
2022-12-28T07:05:20.709Z,6.90
2022-12-28T07:15:24.655Z,7.00
2022-12-28T07:25:28.624Z,7.20
2022-12-28T07:30:30.536Z,7.20
2022-12-28T07:35:32.442Z,7.20
2022-12-28T07:40:34.143Z,7.30
2022-12-28T07:45:36.014Z,7.30
2022-12-28T07:50:38.335Z,7.30
2022-12-28T07:55:40.529Z,7.30
2022-12-28T08:00:42.353Z,7.30
2022-12-28T08:10:46.464Z,7.60
2022-12-28T08:15:57.794Z,7.60
2022-12-28T08:21:03.517Z,7.60
2022-12-28T08:26:17.213Z,7.80
2022-12-28T08:31:27.175Z,7.60
2022-12-28T08:36:29.711Z,7.70
2022-12-28T08:41:31.674Z,7.80
2022-12-28T08:46:35.418Z,7.80
2022-12-28T08:51:41.276Z,8.10
2022-12-28T08:56:44.821Z,8.00
2022-12-28T09:01:47.430Z,8.20
2022-12-28T09:06:50.241Z,8.00
2022-12-28T09:11:51.991Z,8.30
2022-12-28T09:16:54.143Z,8.30
2022-12-28T09:26:57.995Z,8.60
2022-12-28T09:32:01.430Z,8.60
2022-12-28T09:37:03.368Z,8.60
2022-12-28T09:42:24.013Z,8.70
2022-12-28T09:47:31.647Z,8.70
2022-12-28T09:52:51.058Z,9.00
2022-12-28T09:57:56.392Z,8.90
2022-12-28T10:03:02.435Z,9.10
2022-12-28T10:08:04.783Z,10.30
2022-12-28T10:18:55.873Z,9.90
2022-12-28T10:29:22.636Z,10.20
2022-12-28T10:34:25.189Z,10.70
2022-12-28T10:39:32.426Z,10.70
2022-12-28T10:44:40.103Z,10.70
2022-12-28T10:50:10.428Z,11.10
2022-12-28T10:55:33.965Z,11.60
2022-12-28T11:00:35.871Z,11.80
2022-12-28T11:05:37.784Z,12.20
2022-12-28T11:10:40.401Z,13.30
2022-12-28T11:15:44.140Z,19.70
2022-12-28T11:20:51.401Z,22.10
2022-12-28T11:25:55.911Z,20.80
2022-12-28T11:31:01.943Z,19.90
2022-12-28T11:36:09.687Z,19.50
2022-12-28T11:41:30.351Z,15.30
2022-12-28T11:46:42.393Z,14.10
2022-12-28T11:51:44.122Z,14.10
2022-12-28T11:56:51.241Z,15.70
2022-12-28T12:02:14.372Z,23.30
2022-12-28T12:07:23.636Z,24.90
2022-12-28T12:12:30.847Z,24.60
2022-12-28T12:17:42.943Z,16.20
2022-12-28T12:22:56.989Z,15.70
2022-12-28T12:28:22.213Z,16.70
2022-12-28T12:33:28.209Z,21.00
2022-12-28T12:38:57.294Z,19.70
2022-12-28T12:44:10.381Z,16.90
2022-12-28T12:49:31.536Z,15.20
2022-12-28T12:54:41.066Z,13.90
2022-12-28T13:00:02.244Z,13.00
2022-12-28T13:05:05.354Z,13.60
2022-12-28T13:10:15.925Z,12.60
2022-12-28T13:15:18.691Z,12.60
2022-12-28T13:20:22.648Z,12.80
2022-12-28T13:25:25.992Z,13.00
2022-12-28T13:30:29.429Z,13.10
2022-12-28T13:35:33.793Z,12.40
2022-12-28T13:40:38.047Z,12.60
2022-12-28T13:45:40.056Z,12.90
2022-12-28T13:50:43.693Z,12.40
2022-12-28T13:55:56.370Z,11.90
2022-12-28T14:01:00.797Z,11.80
2022-12-28T14:06:04.001Z,11.30
2022-12-28T14:11:06.394Z,11.00
2022-12-28T14:16:08.818Z,11.00
2022-12-28T14:21:10.675Z,10.70
2022-12-28T14:26:21.336Z,10.70
2022-12-28T14:31:28.841Z,10.70
2022-12-28T14:36:50.535Z,10.80
2022-12-28T14:41:52.817Z,10.50
2022-12-28T14:46:55.793Z,10.60
2022-12-28T14:52:17.748Z,10.50
2022-12-28T14:57:28.413Z,10.50
2022-12-28T15:02:33.294Z,10.60
2022-12-28T15:07:35.457Z,10.50
2022-12-28T15:12:38.278Z,10.60
2022-12-28T15:17:40.063Z,10.30
2022-12-28T15:22:41.884Z,10.30
2022-12-28T15:27:43.704Z,10.30
2022-12-28T15:32:45.523Z,10.30
2022-12-28T15:37:47.339Z,10.30
2022-12-28T15:42:49.109Z,10.30
2022-12-28T15:47:55.332Z,10.30
2022-12-28T15:52:57.108Z,10.10
2022-12-28T15:57:58.900Z,10.10
2022-12-28T16:03:00.721Z,10.00
2022-12-28T16:08:02.612Z,9.80
2022-12-28T16:13:04.445Z,9.40
2022-12-28T16:18:06.193Z,9.50
2022-12-28T16:23:08.602Z,9.50
2022-12-28T16:28:10.315Z,9.50
2022-12-28T16:33:12.024Z,9.40
2022-12-28T16:38:13.707Z,9.40
2022-12-28T16:43:16.750Z,9.30
2022-12-28T16:48:18.689Z,9.10
2022-12-28T16:53:24.598Z,9.00
2022-12-28T16:58:27.524Z,9.10
2022-12-28T17:03:29.351Z,9.20
2022-12-28T17:08:31.773Z,9.30
2022-12-28T17:13:34.155Z,9.30
2022-12-28T17:18:36.261Z,9.20
2022-12-28T17:23:39.497Z,9.00
2022-12-28T17:28:41.617Z,8.90
2022-12-28T17:33:55.741Z,8.90
2022-12-28T17:38:57.597Z,8.80
2022-12-28T17:44:00.451Z,9.00
2022-12-28T17:54:04.330Z,8.70
2022-12-28T17:59:06.662Z,8.90
2022-12-28T18:04:09.405Z,8.70
2022-12-28T18:09:11.086Z,8.60
2022-12-28T18:14:13.047Z,8.70
2022-12-28T18:19:14.834Z,8.80
2022-12-28T18:24:18.010Z,8.80
2022-12-28T18:29:19.762Z,9.00
2022-12-28T18:34:21.460Z,8.80
2022-12-28T18:39:23.224Z,8.90
2022-12-28T18:44:25.178Z,8.80
2022-12-28T18:49:29.168Z,8.50
2022-12-28T18:54:30.942Z,8.00
2022-12-28T18:59:32.711Z,8.60
2022-12-28T19:04:34.634Z,8.80
2022-12-28T19:09:36.476Z,8.70
2022-12-28T19:14:38.163Z,8.90
2022-12-28T19:19:39.830Z,9.00
2022-12-28T19:24:41.658Z,9.20
2022-12-28T19:29:43.429Z,9.00
2022-12-28T19:34:45.133Z,9.00
2022-12-28T19:39:46.939Z,9.20
2022-12-28T19:44:48.695Z,9.20
2022-12-28T19:49:50.441Z,9.20
2022-12-28T19:54:52.121Z,9.10
2022-12-28T19:59:53.869Z,9.10
2022-12-28T20:04:55.669Z,9.00
2022-12-28T20:09:57.416Z,8.90
2022-12-28T20:14:59.240Z,9.10
2022-12-28T20:25:03.377Z,8.90
2022-12-28T20:30:05.759Z,8.90
2022-12-28T20:35:07.694Z,8.90
2022-12-28T20:40:10.044Z,8.80
2022-12-28T20:45:11.854Z,8.80
2022-12-28T20:50:13.610Z,8.70
2022-12-28T21:00:17.731Z,8.80
2022-12-28T21:05:19.515Z,8.90
2022-12-28T21:10:21.301Z,8.90
2022-12-28T21:15:23.324Z,9.00
2022-12-28T21:20:26.633Z,8.90
2022-12-28T21:25:28.362Z,8.90
2022-12-28T21:30:30.682Z,9.00
2022-12-28T21:35:34.737Z,8.90
2022-12-28T21:45:38.838Z,6.50
2022-12-28T22:06:09.190Z,7.90
2022-12-28T22:11:31.704Z,8.50
2022-12-28T22:16:35.224Z,8.20
2022-12-28T22:21:37.047Z,8.40
2022-12-28T22:31:41.133Z,9.80
2022-12-28T22:41:45.104Z,9.10
2022-12-28T22:46:46.882Z,9.20
2022-12-28T22:51:48.815Z,9.30
2022-12-28T22:56:50.801Z,9.40
2022-12-28T23:01:53.765Z,9.30
2022-12-28T23:12:05.706Z,9.60
2022-12-28T23:17:09.796Z,9.60
2022-12-28T23:22:44.714Z,9.60
2022-12-28T23:27:47.215Z,9.90
2022-12-28T23:32:50.804Z,9.90
2022-12-28T23:37:53.544Z,9.90
2022-12-28T23:42:55.307Z,9.90
2022-12-28T23:52:59.483Z,10.00
2022-12-28T23:58:01.228Z,10.10
